createdAt,value
2019-01-30T06:25:31.924Z,10.50
2019-01-30T06:26:31.928Z,11.10
2019-01-30T06:27:31.879Z,12.20
2019-01-30T06:28:31.866Z,11.90
2019-01-30T06:29:31.882Z,11.80
2019-01-30T06:30:31.899Z,12.70
2019-01-30T06:31:31.831Z,12.60
2019-01-30T06:32:31.947Z,12.90
2019-01-30T06:33:31.879Z,12.80
2019-01-30T06:34:31.846Z,12.90
2019-01-30T06:36:06.030Z,12.90
2019-01-30T06:36:31.770Z,13.20
2019-01-30T06:37:31.778Z,12.80
2019-01-30T06:38:31.770Z,12.80
2019-01-30T06:39:31.743Z,13.30
2019-01-30T06:40:31.754Z,14.10
2019-01-30T06:41:31.742Z,14.30
2019-01-30T06:42:31.745Z,13.70
2019-01-30T06:43:31.719Z,14.50
2019-01-30T06:44:31.731Z,15.00
2019-01-30T06:45:32.738Z,15.10
2019-01-30T06:46:31.705Z,14.30
2019-01-30T06:47:31.658Z,14.40
2019-01-30T06:51:58.194Z,12.70
2019-01-30T06:52:55.936Z,13.90
2019-01-30T06:53:55.913Z,14.30
2019-01-30T06:54:55.896Z,13.60
2019-01-30T06:55:55.886Z,14.30
2019-01-30T06:56:56.918Z,13.60
2019-01-30T06:57:55.857Z,14.60
2019-01-30T06:58:55.969Z,14.00
2019-01-30T06:59:57.968Z,14.50
2019-01-30T07:01:00.560Z,14.40
2019-01-30T07:01:57.834Z,15.30
2019-01-30T07:02:57.340Z,15.30
2019-01-30T07:03:58.327Z,15.00
2019-01-30T07:05:07.400Z,15.60
2019-01-30T07:05:56.393Z,14.70
2019-01-30T07:07:06.943Z,14.80
2019-01-30T07:08:20.164Z,15.10
2019-01-30T07:09:04.093Z,15.50
2019-01-30T07:09:56.829Z,15.40
2019-01-30T07:10:56.008Z,14.00
2019-01-30T07:11:57.942Z,14.60
2019-01-30T07:13:02.880Z,15.00
2019-01-30T07:14:02.592Z,15.20
2019-01-30T07:15:59.846Z,15.00
2019-01-30T07:16:58.469Z,15.30
2019-01-30T07:17:58.548Z,15.20
2019-01-30T07:18:55.833Z,14.80
2019-01-30T11:36:33.747Z,20.70
2019-01-30T11:45:38.141Z,19.50
2019-01-30T11:46:38.107Z,19.80
2019-01-30T11:47:38.105Z,20.00
2019-01-30T11:48:38.087Z,20.10
2019-01-30T11:49:38.073Z,19.80
2019-01-30T11:50:38.091Z,20.70
2019-01-30T11:51:38.056Z,20.30
2019-01-30T11:52:38.045Z,20.20
2019-01-30T11:53:38.033Z,18.60
2019-01-30T11:54:38.774Z,20.70
2019-01-30T11:55:38.983Z,22.00
2019-01-30T11:56:37.997Z,20.80
2019-01-30T11:57:38.089Z,20.80
2019-01-30T11:58:37.979Z,20.00
2019-01-30T11:59:37.971Z,22.00
2019-01-30T12:00:37.995Z,21.00
2019-01-30T12:01:37.954Z,22.10
2019-01-30T12:02:47.472Z,22.40
2019-01-30T12:03:38.928Z,22.00
2019-01-30T12:04:37.922Z,22.60
2019-01-30T12:05:46.515Z,20.90
2019-01-30T12:06:46.977Z,21.60
2019-01-30T12:07:47.011Z,21.20
2019-01-30T12:08:37.868Z,22.90
2019-01-30T12:09:37.861Z,21.30
2019-01-30T12:10:37.849Z,22.40
2019-01-30T12:11:37.859Z,22.60
2019-01-30T12:12:37.864Z,21.60
2019-01-30T12:13:37.818Z,22.70
2019-01-30T12:14:37.810Z,22.90
2019-01-30T12:15:38.633Z,21.60
2019-01-30T12:16:37.853Z,23.70
2019-01-30T12:17:37.779Z,22.90
2019-01-30T12:18:37.765Z,22.20
2019-01-30T12:19:37.751Z,22.20
2019-01-30T12:20:37.778Z,21.80
2019-01-30T12:21:37.734Z,21.10
2019-01-30T12:22:37.748Z,21.80
2019-01-30T12:23:37.715Z,22.90
2019-01-30T12:24:37.700Z,22.90
2019-01-30T12:25:37.703Z,21.60
2019-01-30T12:26:37.683Z,22.90
2019-01-30T12:27:37.689Z,22.10
2019-01-30T12:28:37.681Z,22.80
2019-01-30T12:29:37.647Z,21.60
2019-01-30T12:30:37.638Z,21.00
2019-01-30T12:31:37.630Z,23.10
2019-01-30T12:32:37.645Z,22.30
2019-01-30T12:33:37.603Z,23.20
2019-01-30T12:34:37.593Z,23.70
2019-01-30T12:35:37.583Z,22.80
2019-01-30T12:36:37.669Z,22.50
2019-01-30T12:37:37.562Z,23.70
2019-01-30T12:38:37.565Z,22.90
2019-01-30T12:39:37.537Z,23.10
2019-01-30T12:40:37.527Z,22.10
2019-01-30T12:41:37.512Z,21.30
2019-01-30T12:42:37.499Z,24.10
2019-01-30T12:43:37.511Z,24.50
2019-01-30T12:44:37.478Z,24.30
2019-01-30T12:45:37.467Z,23.40
2019-01-30T12:46:37.459Z,23.40
2019-01-30T12:47:37.448Z,23.30
2019-01-30T12:48:37.489Z,24.30
2019-01-30T12:49:37.425Z,22.30
2019-01-30T12:50:37.416Z,23.40
2019-01-30T12:51:37.408Z,25.00
2019-01-30T12:52:37.392Z,24.20
2019-01-30T12:53:37.384Z,28.10
2019-01-30T12:54:37.390Z,26.10
2019-01-30T12:55:37.359Z,26.20
2019-01-30T12:56:37.348Z,24.40
2019-01-30T12:57:37.340Z,23.50
2019-01-30T12:58:37.327Z,24.20
2019-01-30T12:59:37.340Z,23.50
2019-01-30T13:00:37.306Z,23.90
2019-01-30T13:01:37.298Z,24.30
2019-01-30T13:02:37.283Z,24.20
2019-01-30T13:03:37.276Z,24.00
2019-01-30T13:04:38.859Z,25.00
2019-01-30T13:05:37.252Z,24.80
2019-01-30T13:06:37.247Z,25.50
2019-01-30T13:07:37.239Z,25.10
2019-01-30T13:08:37.222Z,25.50
2019-01-30T13:09:37.219Z,25.10
2019-01-30T13:10:37.244Z,27.10
2019-01-30T13:11:37.197Z,24.50
2019-01-30T13:12:37.186Z,23.50
2019-01-30T13:13:37.173Z,25.00
2019-01-30T13:14:37.162Z,23.80
2019-01-30T13:15:37.217Z,25.40
2019-01-30T13:16:37.143Z,27.00
2019-01-30T13:17:37.139Z,25.80
2019-01-30T13:18:37.118Z,25.50
2019-01-30T13:19:37.118Z,25.40
2019-01-30T13:20:37.102Z,24.80
2019-01-30T13:21:37.117Z,25.60
2019-01-30T13:22:37.080Z,25.20
2019-01-30T13:23:37.062Z,23.90
2019-01-30T13:24:38.536Z,24.30
2019-01-30T13:25:37.050Z,25.70
2019-01-30T13:26:37.079Z,25.10
2019-01-30T13:27:37.031Z,26.20
2019-01-30T13:28:37.013Z,24.40
2019-01-30T13:29:38.510Z,25.20
2019-01-30T13:30:37.176Z,24.90
2019-01-30T13:31:37.078Z,25.70
2019-01-30T13:32:37.068Z,26.30
2019-01-30T13:33:37.033Z,26.80
2019-01-30T13:34:36.976Z,32.70
2019-01-30T13:35:36.940Z,37.90
2019-01-30T13:36:36.924Z,42.50
2019-01-30T13:37:36.945Z,39.90
2019-01-30T13:38:36.911Z,33.20
2019-01-30T14:15:32.676Z,33.00
2019-01-30T14:16:32.660Z,26.40
2019-01-30T14:17:32.656Z,25.40
2019-01-30T14:18:32.621Z,25.40
2019-01-30T14:19:32.599Z,25.80
2019-01-30T14:20:32.589Z,24.20
2019-01-30T14:21:32.579Z,26.50
2019-01-30T14:22:32.614Z,26.40
2019-01-30T14:23:32.562Z,25.00
2019-01-30T14:24:32.546Z,26.50
2019-01-30T14:25:32.536Z,25.40
2019-01-30T14:26:32.531Z,25.70
2019-01-30T14:27:32.540Z,26.20
2019-01-30T14:28:32.510Z,26.90
2019-01-30T14:29:32.502Z,25.80
2019-01-30T14:30:32.485Z,25.70
2019-01-30T14:31:32.491Z,25.40
2019-01-30T14:32:32.506Z,25.70
2019-01-30T14:33:32.453Z,25.80
2019-01-30T14:34:32.573Z,26.40
2019-01-30T14:35:32.426Z,25.30
2019-01-30T14:36:32.415Z,25.70
2019-01-30T14:37:32.553Z,25.40
2019-01-30T14:38:40.989Z,25.60
2019-01-30T14:39:41.630Z,25.70
2019-01-30T14:40:32.375Z,24.50
2019-01-30T14:41:32.449Z,26.40
2019-01-30T14:42:32.348Z,26.50
2019-01-30T14:43:32.394Z,24.90
2019-01-30T14:44:32.329Z,22.90
2019-01-30T14:45:57.897Z,24.70
2019-01-30T14:46:32.318Z,25.90
2019-01-30T14:47:32.320Z,24.00
2019-01-30T14:48:32.361Z,25.70
2019-01-30T14:49:32.284Z,24.60
2019-01-30T14:50:32.265Z,25.60
2019-01-30T14:51:32.280Z,23.90
2019-01-30T14:52:32.269Z,23.50
2019-01-30T14:53:32.241Z,24.20
2019-01-30T14:54:32.276Z,25.00
2019-01-30T14:55:32.231Z,25.60
2019-01-30T14:56:32.200Z,26.80
2019-01-30T14:57:32.205Z,25.00
2019-01-30T14:58:32.178Z,23.80
2019-01-30T14:59:32.215Z,25.00
2019-01-30T15:00:32.162Z,26.80
2019-01-30T15:01:32.177Z,25.00
2019-01-30T15:02:32.229Z,26.00
2019-01-30T15:03:32.158Z,23.80
2019-01-30T15:04:32.156Z,23.80
2019-01-30T15:05:41.213Z,23.60
2019-01-30T15:07:48.950Z,24.60
2019-01-30T15:15:26.639Z,24.40
2019-01-30T15:15:59.591Z,23.80
2019-01-30T15:17:25.154Z,25.30
2019-01-30T15:17:59.577Z,24.80
2019-01-30T15:18:59.539Z,24.80
2019-01-30T15:19:59.514Z,23.30
2019-01-30T15:20:59.581Z,25.90
2019-01-30T15:21:59.503Z,25.50
2019-01-30T15:22:59.482Z,25.70
2019-01-30T15:23:59.469Z,25.00
2019-01-30T15:24:59.458Z,26.70
2019-01-30T15:25:59.486Z,26.00
2019-01-30T15:26:59.435Z,26.00
2019-01-30T15:27:59.440Z,27.50
2019-01-30T15:28:59.418Z,25.50
2019-01-30T15:29:59.418Z,24.70
2019-01-30T15:30:59.398Z,25.40
2019-01-30T15:31:59.407Z,26.80
2019-01-30T15:32:59.378Z,26.40
2019-01-30T15:33:59.365Z,28.10
2019-01-30T15:34:59.353Z,25.90
2019-01-30T15:35:59.343Z,25.60
2019-01-30T15:36:59.359Z,25.50
2019-01-30T15:37:59.318Z,27.50
2019-01-30T15:38:59.314Z,27.10
2019-01-30T15:39:59.299Z,26.50
2019-01-30T15:40:59.289Z,26.90
2019-01-30T15:41:59.277Z,28.10
2019-01-30T15:42:59.289Z,26.40
2019-01-30T15:43:59.257Z,27.60
2019-01-30T15:44:59.249Z,27.30
2019-01-30T15:45:59.239Z,27.40
2019-01-30T15:46:59.225Z,27.50
2019-01-30T15:47:59.244Z,26.80
2019-01-30T15:48:59.204Z,27.20
2019-01-30T15:49:59.189Z,27.80
2019-01-30T15:50:59.183Z,26.70
2019-01-30T15:51:59.173Z,26.90
2019-01-30T15:52:59.162Z,27.70
2019-01-30T15:53:59.170Z,27.00
2019-01-30T15:54:59.139Z,27.30
2019-01-30T15:55:59.131Z,29.30
2019-01-30T15:56:59.117Z,28.80
2019-01-30T15:57:59.109Z,28.90
2019-01-30T15:58:59.117Z,28.80
2019-01-30T15:59:59.087Z,28.30
2019-01-30T16:00:59.078Z,28.70
2019-01-30T16:01:59.064Z,27.90
2019-01-30T16:02:59.064Z,29.50
2019-01-30T16:03:59.068Z,32.00
2019-01-30T16:04:59.033Z,32.60
2019-01-30T16:05:59.022Z,30.90
2019-01-30T16:06:59.011Z,31.40
2019-01-30T16:07:58.998Z,30.90
2019-01-30T16:08:58.995Z,33.10
2019-01-30T16:09:59.003Z,32.50
2019-01-30T16:10:58.971Z,32.60
2019-01-30T16:11:58.960Z,33.30
2019-01-30T16:12:58.948Z,33.00
2019-01-30T16:13:58.937Z,32.80
2019-01-30T16:15:00.561Z,31.50
2019-01-30T16:15:58.915Z,32.40
2019-01-30T16:16:58.899Z,33.70
2019-01-30T16:17:58.892Z,33.40
2019-01-30T16:18:58.880Z,34.10
2019-01-30T16:19:58.875Z,34.60
2019-01-30T16:20:58.879Z,41.50
2019-01-30T16:21:58.853Z,40.20
2019-01-30T16:22:58.837Z,51.00
2019-01-30T16:23:58.825Z,48.40
2019-01-30T16:25:08.747Z,44.20
2019-01-30T16:25:59.833Z,45.80
2019-01-30T16:26:58.793Z,43.20
2019-01-30T16:27:58.781Z,46.40
2019-01-30T16:28:58.772Z,43.80
2019-01-30T16:29:58.759Z,43.50
2019-01-30T16:30:58.798Z,43.40
2019-01-30T16:31:58.742Z,42.10
2019-01-30T16:32:58.731Z,42.40
2019-01-30T16:33:58.717Z,41.90
2019-01-30T16:34:58.715Z,42.50
2019-01-30T16:35:58.704Z,41.30
2019-01-30T16:36:58.707Z,42.80
2019-01-30T16:37:58.675Z,45.00
2019-01-30T16:38:58.667Z,43.50
2019-01-30T16:39:58.656Z,43.50
2019-01-30T16:40:58.644Z,43.80
2019-01-30T16:41:58.654Z,41.70
2019-01-30T16:42:58.622Z,43.90
2019-01-30T16:43:58.608Z,43.10
2019-01-30T16:44:58.611Z,43.60
2019-01-30T16:45:58.589Z,44.90
2019-01-30T16:46:58.708Z,46.90
2019-01-30T16:47:58.569Z,45.40
2019-01-30T16:48:58.557Z,45.30
2019-01-30T16:49:58.545Z,43.90
2019-01-30T16:50:58.535Z,45.30
2019-01-30T16:51:58.534Z,45.60
2019-01-30T16:52:58.537Z,46.50
2019-01-30T16:53:58.501Z,48.80
2019-01-30T16:54:58.499Z,47.70
2019-01-30T16:55:58.481Z,46.00
2019-01-30T16:56:58.470Z,45.90
2019-01-30T16:57:58.500Z,45.70
2019-01-30T16:58:58.449Z,48.80
2019-01-30T16:59:58.450Z,45.50
2019-01-30T17:00:58.454Z,48.00
2019-01-30T17:01:58.419Z,48.30
2019-01-30T17:02:58.410Z,46.50
2019-01-30T17:03:58.424Z,47.70
2019-01-30T17:04:58.396Z,46.30
2019-01-30T17:06:07.182Z,49.20
2019-01-30T17:06:59.363Z,47.80
2019-01-30T17:08:21.501Z,52.10
2019-01-30T17:08:58.339Z,49.70
2019-01-30T17:09:58.325Z,49.70
2019-01-30T17:10:58.312Z,47.80
2019-01-30T17:11:58.302Z,47.00
2019-01-30T17:16:18.460Z,49.40
2019-01-30T17:17:02.668Z,50.80
2019-01-30T17:18:02.668Z,51.40
2019-01-30T17:19:02.669Z,51.80
2019-01-30T17:20:02.637Z,49.00
2019-01-30T17:21:02.627Z,47.70
2019-01-30T17:22:02.619Z,50.30
2019-01-30T17:23:02.613Z,52.40
2019-01-30T17:24:02.619Z,49.40
2019-01-30T17:25:02.599Z,48.10
2019-01-30T17:26:02.583Z,49.20
2019-01-30T17:27:02.573Z,50.10
2019-01-30T17:30:12.972Z,48.50
2019-01-30T17:31:12.936Z,49.20
2019-01-30T17:32:13.016Z,50.20
2019-01-30T17:33:12.912Z,49.70
2019-01-30T17:34:12.893Z,48.10
2019-01-30T17:35:12.938Z,47.80
2019-01-30T17:36:18.535Z,47.20
2019-01-30T17:37:13.864Z,43.90
2019-01-30T17:38:12.887Z,44.60
2019-01-30T17:39:12.850Z,43.30
2019-01-30T17:40:12.843Z,43.90
2019-01-30T17:41:12.858Z,46.60
2019-01-30T17:42:12.828Z,46.50
2019-01-30T17:43:12.803Z,46.00
2019-01-30T17:44:13.010Z,43.20
2019-01-30T17:45:12.782Z,43.50
2019-01-30T17:46:12.807Z,47.20
2019-01-30T17:47:12.758Z,42.50
2019-01-30T17:48:12.748Z,49.40
2019-01-30T17:49:12.742Z,47.30
2019-01-30T17:50:12.728Z,43.00
2019-01-30T17:51:12.736Z,43.00
2019-01-30T17:52:12.704Z,45.10
2019-01-30T17:53:12.688Z,43.20
2019-01-30T17:54:12.677Z,45.60
2019-01-30T17:55:12.665Z,44.10
2019-01-30T17:56:12.681Z,45.60
2019-01-30T17:57:12.644Z,44.20
2019-01-30T17:58:12.634Z,44.00
2019-01-30T17:59:12.627Z,44.90
2019-01-30T18:00:12.617Z,47.40
2019-01-30T18:01:12.607Z,43.60
2019-01-30T18:02:12.617Z,44.90
2019-01-30T18:03:12.580Z,44.10
2019-01-30T18:04:12.573Z,44.50
2019-01-30T18:05:12.559Z,43.90
2019-01-30T18:06:12.977Z,43.10
2019-01-30T18:07:12.561Z,44.60
2019-01-30T18:08:12.526Z,43.00
2019-01-30T18:09:12.513Z,41.70
2019-01-30T18:10:12.502Z,44.10
2019-01-30T18:11:12.491Z,43.40
2019-01-30T18:12:12.514Z,42.90
2019-01-30T18:13:12.486Z,43.70
2019-01-30T18:14:12.464Z,45.40
2019-01-30T18:15:12.460Z,41.90
2019-01-30T18:16:12.446Z,42.60
2019-01-30T18:17:12.426Z,45.10
2019-01-30T18:18:12.439Z,42.60
2019-01-30T18:19:12.404Z,42.20
2019-01-30T18:20:12.393Z,41.90
2019-01-30T18:21:12.386Z,41.80
2019-01-30T18:22:12.378Z,41.20
2019-01-30T18:23:12.387Z,41.90
2019-01-30T18:24:12.355Z,41.60
2019-01-30T18:25:12.341Z,41.20
2019-01-30T18:26:12.326Z,41.00
2019-01-30T18:27:12.318Z,41.40
2019-01-30T18:28:12.310Z,41.10
2019-01-30T18:29:12.319Z,40.40
2019-01-30T18:30:12.299Z,39.80
2019-01-30T18:31:12.277Z,42.50
2019-01-30T18:32:12.265Z,39.90
2019-01-30T18:33:12.254Z,38.40
2019-01-30T18:34:12.302Z,40.50
2019-01-30T18:35:12.232Z,39.80
2019-01-30T18:36:12.224Z,40.30
2019-01-30T18:37:12.214Z,37.00
2019-01-30T18:38:12.203Z,36.40
2019-01-30T18:39:12.210Z,40.40
2019-01-30T18:40:12.179Z,40.80
2019-01-30T18:41:12.164Z,37.40
2019-01-30T18:42:12.159Z,37.40
2019-01-30T18:43:12.150Z,37.70
2019-01-30T18:44:12.182Z,39.90
2019-01-30T18:45:12.123Z,36.10
2019-01-30T18:46:12.118Z,34.70
2019-01-30T18:47:12.104Z,35.70
2019-01-30T18:48:12.097Z,35.70
2019-01-30T18:49:12.080Z,38.10
2019-01-30T18:50:12.177Z,36.40
2019-01-30T18:51:12.066Z,38.10
2019-01-30T18:52:12.058Z,37.60
2019-01-30T18:53:12.614Z,33.30
2019-01-30T18:58:22.903Z,33.70
2019-01-30T18:58:54.951Z,34.40
2019-01-30T18:59:54.923Z,33.10
2019-01-30T19:00:54.964Z,32.80
2019-01-30T19:01:54.899Z,32.50
2019-01-30T19:02:55.930Z,29.10
2019-01-30T19:03:54.880Z,29.90
2019-01-30T19:04:54.868Z,32.70
2019-01-30T19:05:54.867Z,29.40
2019-01-30T19:06:54.867Z,28.10
2019-01-30T19:07:54.836Z,28.20
2019-01-30T19:08:54.824Z,29.50
2019-01-30T19:09:54.815Z,29.80
2019-01-30T19:10:54.805Z,28.60
2019-01-30T19:11:54.816Z,30.50
2019-01-30T19:12:54.783Z,28.20
2019-01-30T19:13:54.772Z,29.80
2019-01-30T19:14:54.760Z,27.50
2019-01-30T19:15:54.748Z,28.80
2019-01-30T19:16:54.760Z,30.40
2019-01-30T19:17:54.725Z,28.40
2019-01-30T19:18:54.718Z,27.80
2019-01-30T19:19:54.711Z,26.60
2019-01-30T19:20:54.693Z,29.40
2019-01-30T19:21:54.685Z,27.70
2019-01-30T19:22:54.698Z,29.10
2019-01-30T19:23:54.660Z,29.30
2019-01-30T19:24:54.648Z,28.60
2019-01-30T19:25:54.641Z,28.60
2019-01-30T19:26:54.628Z,30.10
2019-01-30T19:27:56.139Z,29.60
2019-01-30T19:28:54.608Z,28.40
2019-01-30T19:29:54.596Z,30.00
2019-01-30T19:30:54.583Z,27.30
2019-01-30T19:31:54.575Z,31.90
2019-01-30T19:32:54.567Z,34.90
2019-01-30T19:33:54.573Z,31.30
2019-01-30T19:34:54.545Z,35.80
2019-01-30T19:35:54.532Z,35.80
2019-01-30T19:37:03.192Z,36.30
2019-01-30T19:37:55.508Z,34.00
2019-01-30T19:38:54.517Z,31.20
2019-01-30T19:39:54.487Z,35.90
2019-01-30T19:40:54.480Z,34.80
2019-01-30T19:41:54.464Z,34.30
2019-01-30T19:42:54.462Z,35.40
2019-01-30T19:43:54.475Z,31.90
2019-01-30T19:44:54.434Z,31.50
2019-01-30T19:45:54.423Z,34.30
2019-01-30T19:46:55.931Z,24.80
2019-01-30T19:47:54.407Z,23.20
2019-01-30T19:48:54.434Z,22.50
2019-01-30T19:49:54.377Z,20.60
2019-01-30T19:50:54.369Z,18.20
2019-01-30T19:51:54.372Z,19.30
2019-01-30T19:52:54.347Z,18.40
2019-01-30T19:53:54.337Z,17.60
2019-01-30T19:54:54.347Z,16.40
2019-01-30T19:55:54.312Z,17.00
2019-01-30T19:56:54.302Z,17.40
2019-01-30T19:57:54.293Z,14.00
2019-01-30T19:58:54.278Z,13.40
2019-01-30T19:59:54.267Z,14.80
2019-01-30T20:00:54.278Z,16.10
2019-01-30T20:01:54.249Z,16.40
2019-01-30T20:02:54.235Z,15.80
2019-01-30T20:03:54.227Z,13.80
2019-01-30T20:04:54.213Z,18.40
2019-01-30T20:05:54.231Z,15.00
2019-01-30T20:06:54.192Z,15.00
2019-01-30T20:07:54.186Z,14.50
2019-01-30T20:08:54.168Z,14.40
2019-01-30T20:09:54.159Z,12.40
2019-01-30T20:10:54.151Z,13.20
2019-01-30T20:11:54.158Z,11.90
2019-01-30T20:12:54.127Z,13.20
2019-01-30T20:13:54.114Z,10.80
2019-01-30T20:14:54.104Z,13.90
2019-01-30T20:15:54.100Z,14.60
2019-01-30T20:16:54.109Z,13.70
2019-01-30T20:17:54.072Z,12.20
2019-01-30T20:18:54.061Z,12.00
2019-01-30T20:19:54.049Z,12.30
2019-01-30T20:20:54.042Z,12.70
2019-01-30T20:21:54.029Z,12.50
2019-01-30T20:22:54.040Z,12.30
2019-01-30T20:23:54.010Z,12.20
2019-01-30T20:24:53.995Z,12.80
2019-01-30T20:25:53.986Z,12.40
2019-01-30T20:26:53.975Z,12.50
2019-01-30T20:27:53.991Z,12.00
2019-01-30T20:28:53.951Z,12.50
2019-01-30T20:29:53.942Z,12.30
2019-01-30T20:30:53.931Z,11.80
2019-01-30T20:31:53.921Z,12.30
2019-01-30T20:32:53.911Z,11.60
2019-01-30T20:33:53.922Z,12.70
2019-01-30T20:34:53.887Z,13.00
2019-01-30T20:35:53.873Z,12.60
2019-01-30T20:36:53.864Z,12.30
2019-01-30T20:37:53.852Z,12.20
2019-01-30T20:38:53.864Z,12.70
2019-01-30T20:39:53.830Z,12.20
2019-01-30T20:40:53.819Z,12.70
2019-01-30T20:41:53.808Z,12.50
2019-01-30T20:42:53.808Z,13.50
2019-01-30T20:43:53.814Z,12.60
2019-01-30T20:44:53.777Z,13.70
2019-01-30T20:45:53.767Z,12.90
2019-01-30T20:46:53.755Z,12.10
2019-01-30T20:47:53.743Z,12.50
2019-01-30T20:48:53.735Z,11.70
2019-01-30T20:49:53.746Z,11.70
2019-01-30T20:50:53.714Z,12.10
2019-01-30T20:51:53.702Z,10.80
2019-01-30T20:52:53.690Z,11.20
2019-01-30T20:53:53.679Z,10.30
2019-01-30T20:54:59.816Z,11.10
2019-01-30T20:55:55.338Z,10.70
2019-01-30T20:56:53.646Z,11.50
2019-01-30T20:57:53.634Z,12.10
2019-01-30T20:58:53.627Z,10.90
2019-01-30T20:59:53.612Z,10.80
2019-01-30T21:00:53.622Z,11.30
2019-01-30T21:01:53.591Z,11.20
2019-01-30T21:02:53.579Z,10.20
2019-01-30T21:03:53.571Z,10.40
2019-01-30T21:04:53.557Z,10.10
2019-01-30T21:05:53.575Z,10.50
2019-01-30T21:06:53.538Z,9.80
2019-01-30T21:07:53.525Z,10.40
2019-01-30T21:08:53.534Z,10.40
2019-01-30T21:09:53.505Z,10.50
2019-01-30T21:10:53.492Z,10.00
2019-01-30T21:11:54.489Z,10.40
2019-01-30T21:12:53.470Z,9.40
2019-01-30T21:13:53.459Z,10.00
2019-01-30T21:14:53.450Z,9.60
2019-01-30T21:15:53.438Z,11.30
2019-01-30T21:16:54.344Z,11.40
2019-01-30T21:17:53.413Z,9.60
2019-01-30T21:18:53.408Z,9.20
2019-01-30T21:19:53.393Z,9.20
2019-01-30T21:20:53.384Z,9.50
2019-01-30T21:21:53.392Z,9.40
2019-01-30T21:22:53.368Z,10.10
2019-01-30T21:23:53.355Z,10.30
2019-01-30T21:24:53.341Z,9.90
2019-01-30T21:25:53.328Z,9.70
2019-01-30T21:26:53.344Z,9.20
2019-01-30T21:27:53.309Z,9.10
2019-01-30T21:28:53.295Z,9.30
2019-01-30T21:29:53.288Z,8.80
2019-01-30T21:30:53.272Z,9.10
2019-01-30T21:31:54.969Z,8.50
2019-01-30T21:32:53.271Z,8.40
2019-01-30T21:33:53.240Z,8.30
2019-01-30T21:34:53.231Z,8.50
2019-01-30T21:35:53.218Z,7.90
2019-01-30T21:36:53.207Z,8.00
2019-01-30T21:37:53.229Z,9.00
2019-01-30T21:38:53.187Z,8.80
2019-01-30T21:39:53.177Z,9.30
2019-01-30T21:40:53.164Z,10.10
2019-01-30T21:41:53.153Z,10.30
2019-01-30T21:42:53.142Z,9.50
2019-01-30T21:43:53.157Z,10.20
2019-01-30T21:44:53.125Z,9.40
2019-01-30T21:45:53.173Z,8.40
2019-01-30T21:46:53.819Z,9.10
2019-01-30T21:47:53.088Z,8.80
2019-01-30T21:48:55.397Z,8.90
2019-01-30T21:49:53.078Z,8.90
2019-01-30T21:50:53.071Z,8.50
2019-01-30T21:51:53.055Z,8.40
2019-01-30T21:52:53.043Z,8.50
2019-01-30T21:53:53.049Z,8.60
2019-01-30T21:54:53.011Z,8.40
2019-01-30T21:55:53.002Z,8.60
2019-01-30T21:56:52.991Z,8.60
2019-01-30T21:57:52.983Z,8.90
2019-01-30T21:58:53.363Z,9.40
2019-01-30T21:59:52.966Z,9.60
2019-01-30T22:00:52.946Z,9.70
2019-01-30T22:01:52.936Z,9.10
2019-01-30T22:02:52.925Z,10.10
2019-01-30T22:03:52.948Z,9.90
2019-01-30T22:04:52.902Z,10.10
2019-01-30T22:05:52.895Z,10.00
2019-01-30T22:06:52.879Z,9.90
2019-01-30T22:08:00.764Z,9.10
2019-01-30T22:08:55.978Z,8.80
2019-01-30T22:09:52.849Z,9.60
2019-01-30T22:10:52.836Z,8.60
2019-01-30T22:11:52.826Z,8.70
2019-01-30T22:12:52.814Z,8.90
2019-01-30T22:13:52.803Z,9.40
2019-01-30T22:14:52.817Z,9.00
2019-01-30T22:15:52.783Z,9.90
2019-01-30T22:16:52.771Z,9.80
2019-01-30T22:17:52.759Z,10.10
2019-01-30T22:18:52.748Z,10.40
2019-01-30T22:19:52.739Z,10.30
2019-01-30T22:20:52.749Z,9.30
2019-01-30T22:21:52.717Z,9.10
2019-01-30T22:22:52.706Z,8.10
2019-01-30T22:23:52.696Z,8.00
2019-01-30T22:24:52.686Z,8.20
2019-01-30T22:25:52.694Z,7.50
2019-01-30T22:26:52.660Z,7.70
2019-01-30T22:27:52.651Z,7.70
2019-01-30T22:28:52.641Z,7.00
2019-01-30T22:29:52.630Z,7.60
2019-01-30T22:30:52.641Z,6.90
2019-01-30T22:31:52.609Z,7.30
2019-01-30T22:32:52.600Z,7.00
2019-01-30T22:33:52.586Z,7.40
2019-01-30T22:34:52.574Z,7.20
2019-01-30T22:35:52.607Z,6.60
2019-01-30T22:36:52.555Z,7.50
2019-01-30T22:37:52.542Z,7.30
2019-01-30T22:38:52.533Z,7.60
2019-01-30T22:39:52.520Z,7.40
2019-01-30T22:40:52.510Z,6.90
2019-01-30T22:41:53.353Z,8.30
2019-01-30T22:42:52.489Z,7.60
2019-01-30T22:43:52.480Z,7.20
2019-01-30T22:44:52.470Z,7.50
2019-01-30T22:45:52.454Z,7.00
2019-01-30T22:46:52.486Z,7.70
2019-01-30T22:47:52.432Z,7.80
2019-01-30T22:48:52.426Z,7.20
2019-01-30T22:49:52.412Z,7.80
2019-01-30T22:50:52.402Z,7.80
2019-01-30T22:51:52.391Z,7.90
2019-01-30T22:52:52.399Z,8.40
2019-01-30T22:53:52.369Z,8.80
2019-01-30T22:54:52.357Z,9.30
2019-01-30T22:55:52.346Z,8.20
2019-01-30T22:56:52.334Z,7.90
2019-01-30T22:57:52.349Z,8.10
2019-01-30T22:58:52.336Z,8.10
2019-01-30T22:59:52.302Z,9.10
2019-01-30T23:00:52.293Z,8.90
2019-01-30T23:01:52.280Z,8.30
2019-01-30T23:02:52.270Z,7.90
2019-01-30T23:03:52.279Z,6.90
2019-01-30T23:04:52.248Z,6.70
2019-01-30T23:05:52.240Z,6.30
2019-01-30T23:06:52.228Z,6.50
2019-01-30T23:07:52.215Z,6.20
2019-01-30T23:08:53.859Z,5.90
2019-01-30T23:09:52.192Z,6.40
2019-01-30T23:10:52.185Z,6.10
2019-01-30T23:11:52.170Z,6.10
2019-01-30T23:12:52.165Z,6.10
2019-01-30T23:13:52.148Z,5.70
2019-01-30T23:14:52.157Z,6.20
2019-01-30T23:15:52.127Z,6.20
2019-01-30T23:16:52.116Z,6.00
2019-01-30T23:17:52.106Z,6.20
2019-01-30T23:18:52.099Z,5.70
2019-01-30T23:19:52.106Z,5.60
2019-01-30T23:20:52.073Z,5.90
2019-01-30T23:21:52.065Z,6.30
2019-01-30T23:22:52.052Z,5.90
2019-01-30T23:23:52.041Z,6.00
2019-01-30T23:24:52.052Z,5.90
2019-01-30T23:25:52.020Z,6.10
2019-01-30T23:26:52.011Z,6.70
2019-01-30T23:27:51.996Z,5.80
2019-01-30T23:28:52.029Z,6.20
2019-01-30T23:29:51.979Z,5.60
2019-01-30T23:30:51.965Z,5.50
2019-01-30T23:31:51.953Z,6.50
2019-01-30T23:32:51.942Z,6.80
2019-01-30T23:33:51.932Z,6.50
2019-01-30T23:34:51.942Z,6.80
2019-01-30T23:35:51.913Z,6.50
2019-01-30T23:36:51.899Z,6.90
2019-01-30T23:37:52.946Z,6.50
2019-01-30T23:38:51.878Z,6.50
2019-01-30T23:39:51.891Z,6.60
2019-01-30T23:40:51.855Z,6.50
2019-01-30T23:41:51.843Z,8.30
2019-01-30T23:42:51.834Z,8.30
2019-01-30T23:43:51.823Z,9.50
2019-01-30T23:44:51.833Z,10.00
2019-01-30T23:45:51.800Z,9.90
2019-01-30T23:46:51.789Z,9.40
2019-01-30T23:47:51.779Z,10.20
2019-01-30T23:48:51.770Z,9.00
2019-01-30T23:49:51.777Z,8.40
2019-01-30T23:50:51.749Z,7.80
2019-01-30T23:51:51.736Z,8.70
2019-01-30T23:52:51.723Z,7.00
2019-01-30T23:53:51.712Z,7.20
2019-01-30T23:54:51.722Z,6.30
2019-01-30T23:55:51.694Z,4.80
2019-01-30T23:56:51.680Z,4.90
2019-01-30T23:57:51.671Z,5.50
2019-01-30T23:58:51.658Z,5.60
2019-01-30T23:59:51.650Z,5.60
